Time;durP1;ratioP1;P1;durP2;ratioP2;P2;SDS_P1;SDS_P2;PMS_P1;PMS_P2;Temp;Humidity;BMP_temperature;BMP_pressure;BME280_temperature;BME280_humidity;BME280_pressure;Samples;Min_cycle;Max_cycle;Signal;HPM_P1;HPM_P2
2021/04/01 00:01:32;;;;;;;20.50;15.90;;;11.70;99.90;;;;;;5026289;28;20473;-83
2021/04/01 00:03:58;;;;;;;19.73;16.27;;;11.70;99.90;;;;;;5023987;28;20215;-83
2021/04/01 00:06:27;;;;;;;22.30;15.00;;;11.70;99.90;;;;;;5024363;28;20447;-83
2021/04/01 00:08:52;;;;;;;18.80;16.80;;;11.70;99.90;;;;;;5029395;28;20199;-82
2021/04/01 00:11:18;;;;;;;17.17;15.37;;;11.80;99.90;;;;;;5030725;28;20419;-83
2021/04/01 00:13:44;;;;;;;17.53;13.87;;;11.80;99.90;;;;;;5027707;28;20717;-84
2021/04/01 00:16:10;;;;;;;19.60;15.30;;;11.70;99.90;;;;;;5026432;28;20195;-84
2021/04/01 00:18:36;;;;;;;15.00;13.40;;;11.80;99.90;;;;;;5027853;28;20176;-83
2021/04/01 00:21:02;;;;;;;20.40;14.33;;;11.80;99.90;;;;;;5011421;28;20534;-82
2021/04/01 00:23:29;;;;;;;25.30;13.90;;;11.80;99.90;;;;;;5026180;28;20481;-82
2021/04/01 00:25:55;;;;;;;19.63;15.70;;;11.80;99.90;;;;;;5028032;28;20505;-84
2021/04/01 00:28:21;;;;;;;20.97;13.70;;;11.70;99.90;;;;;;5027047;28;20423;-84
2021/04/01 00:30:47;;;;;;;16.47;14.10;;;11.80;99.90;;;;;;5029903;28;20394;-82
2021/04/01 00:33:15;;;;;;;20.93;15.77;;;11.80;99.90;;;;;;5027370;28;20171;-83
2021/04/01 00:35:41;;;;;;;17.77;13.40;;;11.80;99.90;;;;;;5027445;28;20186;-83
2021/04/01 00:38:07;;;;;;;19.57;14.30;;;11.90;99.90;;;;;;5027784;28;20407;-83
2021/04/01 00:40:33;;;;;;;16.07;14.37;;;11.90;99.90;;;;;;5025549;28;20172;-83
2021/04/01 00:42:58;;;;;;;17.50;13.80;;;11.90;99.90;;;;;;5025472;28;20458;-82
2021/04/01 00:45:24;;;;;;;14.83;12.63;;;11.80;99.90;;;;;;5024583;28;20207;-82
2021/04/01 00:47:52;;;;;;;13.47;12.10;;;11.80;99.90;;;;;;5025616;28;20157;-83
2021/04/01 00:50:24;;;;;;;15.57;13.47;;;11.70;99.90;;;;;;5024823;28;20422;-83
2021/04/01 00:52:50;;;;;;;18.30;12.57;;;11.70;99.90;;;;;;5026564;28;20429;-84
2021/04/01 00:55:19;;;;;;;15.20;13.80;;;11.70;99.90;;;;;;5025242;28;20512;-83
2021/04/01 00:57:49;;;;;;;14.00;12.03;;;11.60;99.90;;;;;;5026458;28;20438;-84
2021/04/01 01:00:18;;;;;;;15.93;13.47;;;11.60;99.90;;;;;;5009389;28;20954;-84
2021/04/01 01:02:44;;;;;;;17.37;12.63;;;11.60;99.90;;;;;;5026231;28;20466;-83
2021/04/01 01:05:11;;;;;;;14.23;12.73;;;11.50;99.90;;;;;;5030520;28;20462;-83
2021/04/01 01:07:38;;;;;;;13.13;11.63;;;11.50;99.90;;;;;;5026967;28;20306;-84
2021/04/01 01:10:12;;;;;;;16.23;13.67;;;11.50;99.90;;;;;;5029116;28;20490;-84
2021/04/01 01:12:38;;;;;;;16.60;14.40;;;11.40;99.90;;;;;;5024106;28;20406;-82
2021/04/01 01:15:06;;;;;;;15.40;11.73;;;11.40;99.90;;;;;;5023910;28;20965;-82
2021/04/01 01:17:32;;;;;;;17.43;14.23;;;11.40;99.90;;;;;;5025167;28;20418;-82
2021/04/01 01:20:03;;;;;;;13.77;12.37;;;11.40;99.90;;;;;;5024361;28;20457;-82
2021/04/01 01:22:29;;;;;;;12.90;11.00;;;11.40;99.90;;;;;;5024713;28;20458;-82
2021/04/01 01:24:55;;;;;;;16.87;12.73;;;11.30;99.90;;;;;;5024967;28;20526;-82
2021/04/01 01:27:21;;;;;;;12.50;10.83;;;11.30;99.90;;;;;;5006830;28;20411;-86
2021/04/01 01:29:48;;;;;;;21.30;13.03;;;11.20;99.90;;;;;;5023919;28;20179;-82
2021/04/01 01:32:18;;;;;;;16.50;12.70;;;11.20;99.90;;;;;;5024292;28;20191;-83
2021/04/01 01:34:45;;;;;;;18.50;12.70;;;11.20;99.90;;;;;;5023946;28;20446;-83
2021/04/01 01:37:11;;;;;;;23.70;14.97;;;11.20;99.90;;;;;;5008796;28;20423;-83
2021/04/01 01:39:37;;;;;;;12.83;11.40;;;11.10;99.90;;;;;;5025607;28;20457;-83
2021/04/01 01:42:04;;;;;;;16.17;12.90;;;11.10;99.90;;;;;;5025392;28;20462;-83
2021/04/01 01:44:30;;;;;;;19.60;14.07;;;11.10;99.90;;;;;;5049858;23;20208;-82
2021/04/01 01:46:57;;;;;;;14.10;12.63;;;11.10;99.90;;;;;;5001310;28;20515;-83
2021/04/01 01:49:24;;;;;;;16.60;11.47;;;11.20;99.90;;;;;;5001198;28;20450;-81
2021/04/01 01:51:53;;;;;;;15.37;11.63;;;11.20;99.90;;;;;;5002016;28;20431;-81
2021/04/01 01:54:19;;;;;;;17.87;13.10;;;11.20;99.90;;;;;;5009321;28;20523;-80
2021/04/01 01:56:46;;;;;;;18.33;12.40;;;11.20;99.90;;;;;;5017591;28;20509;-81
2021/04/01 01:59:12;;;;;;;15.50;13.87;;;11.20;99.90;;;;;;5001442;28;20481;-82
2021/04/01 02:01:37;;;;;;;18.40;13.43;;;11.20;99.90;;;;;;5003117;28;20406;-79
2021/04/01 02:04:06;;;;;;;18.40;12.90;;;11.20;99.90;;;;;;5003179;28;20923;-80
2021/04/01 02:06:35;;;;;;;20.07;13.83;;;11.30;99.90;;;;;;5004621;28;20256;-79
2021/04/01 02:09:03;;;;;;;21.37;13.53;;;11.40;99.90;;;;;;5023318;28;20399;-82
2021/04/01 02:11:30;;;;;;;17.13;11.77;;;11.40;99.90;;;;;;5020867;28;20410;-80
2021/04/01 02:14:20;;;;;;;17.23;12.47;;;11.40;99.90;;;;;;5023800;28;20411;-83
2021/04/01 02:17:09;;;;;;;17.77;13.80;;;11.40;99.90;;;;;;5005365;28;20415;-81
2021/04/01 02:19:35;;;;;;;18.37;13.80;;;11.50;99.90;;;;;;5017949;28;20774;-80
2021/04/01 02:22:00;;;;;;;15.90;12.13;;;11.50;99.90;;;;;;5018379;28;20461;-81
2021/04/01 02:24:26;;;;;;;16.97;12.43;;;11.50;99.90;;;;;;5018529;28;20232;-81
2021/04/01 02:26:56;;;;;;;15.33;13.80;;;11.50;99.90;;;;;;5001922;28;20509;-82
2021/04/01 02:29:22;;;;;;;16.53;12.27;;;11.50;99.90;;;;;;5000352;28;20202;-81
2021/04/01 02:31:49;;;;;;;14.43;12.93;;;11.50;99.90;;;;;;5002142;28;20442;-82
2021/04/01 02:34:15;;;;;;;15.50;12.13;;;11.60;99.90;;;;;;5022206;28;20442;-80
2021/04/01 02:36:41;;;;;;;13.20;11.90;;;11.60;99.90;;;;;;5023097;28;20794;-81
2021/04/01 02:39:07;;;;;;;24.20;15.50;;;11.60;99.90;;;;;;5020850;28;20429;-81
2021/04/01 02:41:33;;;;;;;20.30;13.10;;;11.60;99.90;;;;;;5021878;28;20407;-80
2021/04/01 02:43:58;;;;;;;14.57;11.70;;;11.60;99.90;;;;;;5019892;28;20172;-81
2021/04/01 02:46:24;;;;;;;18.60;14.33;;;11.70;99.90;;;;;;5022701;28;20152;-81
2021/04/01 02:48:49;;;;;;;16.33;13.47;;;11.70;99.90;;;;;;5020969;28;20508;-80
2021/04/01 02:51:15;;;;;;;15.87;12.67;;;11.80;99.90;;;;;;5003505;28;20244;-81
2021/04/01 02:53:41;;;;;;;17.73;13.37;;;11.90;99.90;;;;;;5010004;28;20180;-80
2021/04/01 02:56:07;;;;;;;15.43;13.83;;;12.00;99.90;;;;;;5031898;28;20196;-78
2021/04/01 02:58:38;;;;;;;18.43;14.20;;;12.00;99.90;;;;;;5011328;28;20639;-80
2021/04/01 03:01:09;;;;;;;16.97;14.03;;;11.90;99.90;;;;;;5012196;28;20915;-79
2021/04/01 03:03:39;;;;;;;16.80;14.20;;;11.80;99.90;;;;;;5029718;28;20454;-80
2021/04/01 03:06:05;;;;;;;18.17;13.00;;;11.90;99.90;;;;;;5026782;28;20435;-81
2021/04/01 03:08:31;;;;;;;20.33;14.53;;;11.90;99.90;;;;;;5027911;28;20421;-80
2021/04/01 03:10:58;;;;;;;14.47;12.97;;;11.90;99.90;;;;;;5026845;28;20402;-81
2021/04/01 03:13:24;;;;;;;14.27;12.17;;;11.80;99.90;;;;;;5006108;28;20426;-82
2021/04/01 03:15:53;;;;;;;15.23;11.97;;;11.90;99.90;;;;;;5004511;28;20461;-81
2021/04/01 03:18:25;;;;;;;17.47;12.73;;;12.00;99.90;;;;;;5004619;28;20434;-82
2021/04/01 03:20:51;;;;;;;13.70;11.50;;;12.10;99.90;;;;;;5003501;28;20399;-81
2021/04/01 03:23:29;;;;;;;15.10;13.23;;;12.20;99.90;;;;;;5020513;28;20986;-81
2021/04/01 03:25:58;;;;;;;16.37;14.13;;;12.20;99.90;;;;;;5002492;28;20233;-81
2021/04/01 03:28:24;;;;;;;14.43;13.03;;;12.20;99.90;;;;;;5003914;28;20402;-83
2021/04/01 03:31:02;;;;;;;15.47;13.10;;;12.30;99.90;;;;;;4987084;28;20501;-83
2021/04/01 03:33:32;;;;;;;18.40;13.67;;;12.30;99.90;;;;;;5012137;28;20393;-83
2021/04/01 03:35:59;;;;;;;15.90;13.00;;;12.30;99.90;;;;;;5033815;28;20433;-81
2021/04/01 03:38:28;;;;;;;16.40;11.73;;;12.20;99.90;;;;;;4987782;28;20415;-81
2021/04/01 03:40:57;;;;;;;19.73;15.23;;;12.30;99.90;;;;;;5002802;28;20422;-82
2021/04/01 03:43:26;;;;;;;14.83;13.20;;;12.30;99.90;;;;;;5020690;28;20811;-82
2021/04/01 03:45:54;;;;;;;17.73;13.97;;;12.30;99.90;;;;;;5003611;28;20504;-81
2021/04/01 03:48:20;;;;;;;16.47;12.53;;;12.30;99.90;;;;;;5019107;28;20922;-81
2021/04/01 03:50:46;;;;;;;17.50;13.40;;;12.30;99.90;;;;;;5019515;28;20411;-84
2021/04/01 03:53:12;;;;;;;17.93;11.73;;;12.30;99.90;;;;;;5019637;28;20778;-82
2021/04/01 03:55:40;;;;;;;21.17;14.30;;;12.30;99.90;;;;;;5001632;28;20191;-80
2021/04/01 03:58:39;;;;;;;21.77;13.10;;;12.20;99.90;;;;;;5002513;28;20426;-82
2021/04/01 04:03:47;;;;;;;16.73;13.57;;;12.30;99.90;;;;;;5021817;28;20458;-81
2021/04/01 04:09:28;;;;;;;16.57;13.27;;;12.30;99.90;;;;;;5023627;28;20451;-79
2021/04/01 04:14:29;;;;;;;17.53;13.50;;;12.30;99.90;;;;;;5002449;28;20438;-81
2021/04/01 04:16:55;;;;;;;16.33;14.00;;;12.30;99.90;;;;;;5017593;28;20430;-81
2021/04/01 04:19:23;;;;;;;15.87;13.80;;;12.30;99.90;;;;;;5019511;28;20493;-82
2021/04/01 04:21:49;;;;;;;18.73;12.63;;;12.30;99.90;;;;;;5000925;28;20176;-80
2021/04/01 04:24:15;;;;;;;17.33;14.50;;;12.30;99.90;;;;;;5018122;28;20456;-81
2021/04/01 04:26:42;;;;;;;19.17;15.67;;;12.30;99.90;;;;;;5017845;28;20459;-80
2021/04/01 04:29:08;;;;;;;23.10;14.77;;;12.30;99.90;;;;;;5018841;28;20172;-82
2021/04/01 04:31:33;;;;;;;19.10;15.33;;;12.30;99.90;;;;;;5001252;28;20437;-81
2021/04/01 04:34:01;;;;;;;16.33;14.20;;;12.30;99.90;;;;;;5018437;28;20210;-83
2021/04/01 04:36:27;;;;;;;16.60;14.70;;;12.30;99.90;;;;;;5018062;28;20539;-81
2021/04/01 04:38:53;;;;;;;15.43;13.83;;;12.30;99.90;;;;;;5018581;28;20160;-81
2021/04/01 04:41:19;;;;;;;17.93;14.00;;;12.30;99.90;;;;;;5000582;28;20160;-80
2021/04/01 04:43:44;;;;;;;17.00;15.00;;;12.30;99.90;;;;;;4986828;28;20278;-80
2021/04/01 04:46:10;;;;;;;20.43;13.93;;;12.30;99.90;;;;;;5004484;28;20199;-82
2021/04/01 04:48:35;;;;;;;16.13;13.60;;;12.30;99.90;;;;;;5021978;28;20164;-82
2021/04/01 04:51:01;;;;;;;18.83;16.93;;;12.30;99.90;;;;;;5021298;28;20243;-81
2021/04/01 04:53:27;;;;;;;15.80;14.23;;;12.30;99.90;;;;;;5020760;28;20243;-82
2021/04/01 05:01:10;;;;;;;15.40;13.37;;;12.20;99.90;;;;;;5001170;28;20409;-79
2021/04/01 05:06:44;;;;;;;23.17;14.70;;;12.30;99.90;;;;;;5018674;28;20399;-82
2021/04/01 05:09:11;;;;;;;21.57;15.60;;;12.30;99.90;;;;;;5001144;28;20407;-82
2021/04/01 05:11:36;;;;;;;18.67;14.87;;;12.30;99.90;;;;;;5000125;28;20410;-82
2021/04/01 05:14:02;;;;;;;16.50;14.67;;;12.30;99.90;;;;;;5018331;28;20763;-82
2021/04/01 05:16:28;;;;;;;17.37;14.03;;;12.30;99.90;;;;;;5018276;28;20175;-82
2021/04/01 05:18:57;;;;;;;17.87;15.97;;;12.30;99.90;;;;;;5018272;28;20958;-81
2021/04/01 05:21:30;;;;;;;18.13;14.10;;;12.30;99.90;;;;;;5000897;28;20406;-79
2021/04/01 05:23:56;;;;;;;19.33;13.43;;;12.30;99.90;;;;;;4999291;28;20450;-81
2021/04/01 05:29:16;;;;;;;21.93;15.03;;;12.30;99.90;;;;;;5001122;28;20407;-83
2021/04/01 05:31:42;;;;;;;17.20;15.27;;;12.30;99.90;;;;;;5019115;28;20395;-81
2021/04/01 05:34:08;;;;;;;18.63;15.57;;;12.30;99.90;;;;;;5019545;28;20415;-82
2021/04/01 05:36:41;;;;;;;20.87;13.77;;;12.40;99.90;;;;;;5019323;28;20213;-80
2021/04/01 05:39:51;;;;;;;19.07;15.43;;;12.40;99.90;;;;;;5005903;28;20950;-81
2021/04/01 05:42:01;;;;;;;31.23;14.23;;;12.40;99.90;;;;;;5008587;28;20612;-80
2021/04/01 05:46:59;;;;;;;16.70;13.50;;;12.50;99.90;;;;;;5000141;28;20418;-82
2021/04/01 06:00:18;;;;;;;23.07;14.23;;;12.70;99.90;;;;;;5002019;28;20414;-80
2021/04/01 06:05:31;;;;;;;26.17;17.17;;;12.70;99.90;;;;;;5000432;28;20439;-83
2021/04/01 06:08:07;;;;;;;19.23;15.23;;;12.80;99.90;;;;;;4986306;28;20818;-81
2021/04/01 06:10:40;;;;;;;25.80;14.77;;;12.90;99.90;;;;;;5018166;28;20438;-82
2021/04/01 06:13:11;;;;;;;19.03;15.13;;;12.90;99.90;;;;;;5016742;28;20407;-79
2021/04/01 06:15:37;;;;;;;21.40;16.20;;;13.00;99.90;;;;;;4999406;28;20435;-83
2021/04/01 06:18:11;;;;;;;22.40;16.80;;;13.00;99.90;;;;;;5015797;28;20502;-80
2021/04/01 06:20:39;;;;;;;23.63;16.13;;;13.00;99.90;;;;;;5018332;28;20402;-82
2021/04/01 06:23:05;;;;;;;26.10;16.90;;;13.00;99.90;;;;;;5017853;28;20981;-80
2021/04/01 06:25:41;;;;;;;21.00;15.67;;;13.10;99.90;;;;;;5000192;28;20476;-81
2021/04/01 06:28:11;;;;;;;19.40;17.33;;;13.10;99.90;;;;;;5018123;28;20410;-80
2021/04/01 06:30:57;;;;;;;21.60;16.30;;;13.20;99.90;;;;;;5002270;28;20390;-82
2021/04/01 06:33:24;;;;;;;26.13;16.93;;;13.20;99.90;;;;;;5018789;28;20398;-83
2021/04/01 06:36:02;;;;;;;34.20;22.03;;;13.30;99.90;;;;;;5017704;28;20450;-83
2021/04/01 06:38:39;;;;;;;23.47;17.83;;;13.50;99.90;;;;;;5003807;28;20399;-84
2021/04/01 06:41:13;;;;;;;21.40;17.03;;;13.60;99.90;;;;;;5019859;28;20433;-82
2021/04/01 06:44:06;;;;;;;22.80;16.80;;;13.70;99.90;;;;;;5002904;28;20457;-80
2021/04/01 06:46:47;;;;;;;16.77;14.67;;;13.80;99.90;;;;;;5004185;28;20525;-81
2021/04/01 06:49:40;;;;;;;23.33;16.60;;;13.90;99.90;;;;;;5001958;28;20423;-81
2021/04/01 06:52:18;;;;;;;21.93;17.60;;;14.10;99.90;;;;;;5001515;28;20406;-82
2021/04/01 06:55:05;;;;;;;29.70;17.50;;;14.20;99.90;;;;;;4986999;28;20448;-83
2021/04/01 07:00:34;;;;;;;19.30;16.13;;;14.30;99.90;;;;;;5002095;28;20522;-81
2021/04/01 07:03:12;;;;;;;20.63;16.60;;;14.40;99.90;;;;;;5003647;28;20541;-84
2021/04/01 07:06:03;;;;;;;25.07;16.43;;;14.40;99.90;;;;;;4983629;28;20443;-82
2021/04/01 07:08:55;;;;;;;19.57;17.37;;;14.60;99.90;;;;;;5002002;28;20418;-82
2021/04/01 07:11:41;;;;;;;25.60;17.30;;;14.50;99.90;;;;;;5019422;28;20477;-82
2021/04/01 07:14:11;;;;;;;22.43;15.37;;;14.60;99.90;;;;;;5000383;28;20414;-80
2021/04/01 07:16:54;;;;;;;20.03;15.90;;;14.50;99.90;;;;;;4999964;28;20411;-81
2021/04/01 07:47:28;;;;;;;27.97;18.27;;;15.30;99.90;;;;;;1368537;26;20493;-82
2021/04/01 07:50:06;;;;;;;23.87;17.80;;;15.70;99.90;;;;;;5000664;28;20419;-84
2021/04/01 07:52:38;;;;;;;22.20;19.80;;;16.00;99.90;;;;;;5017697;28;20413;-82
2021/04/01 07:55:46;;;;;;;24.47;19.20;;;16.10;99.90;;;;;;5016238;28;20443;-81
2021/04/01 07:58:14;;;;;;;26.60;18.37;;;16.00;99.90;;;;;;5025691;28;20418;-83
2021/04/01 08:00:49;;;;;;;31.20;26.17;;;16.10;99.90;;;;;;5010546;28;20382;-83
2021/04/01 08:06:18;;;;;;;25.83;21.00;;;16.30;99.90;;;;;;5028547;28;20501;-83
2021/04/01 08:08:58;;;;;;;29.63;20.43;;;16.50;99.90;;;;;;5011971;28;20514;-81
2021/04/01 08:11:35;;;;;;;34.50;23.63;;;16.50;99.90;;;;;;5011216;28;20755;-82
2021/04/01 08:14:34;;;;;;;28.10;19.00;;;16.60;99.90;;;;;;5028642;28;20390;-81
2021/04/01 08:17:27;;;;;;;30.60;21.03;;;16.80;99.90;;;;;;5017761;28;20418;-86
2021/04/01 08:20:00;;;;;;;33.80;20.80;;;17.20;99.90;;;;;;5011268;28;20430;-83
2021/04/01 08:23:05;;;;;;;32.97;20.03;;;17.20;99.90;;;;;;5011200;28;20458;-85
2021/04/01 08:25:42;;;;;;;28.03;21.13;;;17.50;99.90;;;;;;5026242;28;20550;-83
2021/04/01 08:31:55;;;;;;;29.60;21.90;;;18.20;99.90;;;;;;5019206;28;20418;-83
2021/04/01 08:37:24;;;;;;;35.23;23.40;;;18.10;98.80;;;;;;5013643;28;20499;-81
2021/04/01 08:40:09;;;;;;;35.80;22.80;;;18.00;98.50;;;;;;5006685;28;20768;-84
2021/04/01 08:43:42;;;;;;;32.60;21.17;;;17.90;98.00;;;;;;5012430;28;20509;-82
2021/04/01 08:47:03;;;;;;;28.70;21.93;;;17.70;98.60;;;;;;5012382;28;20531;-82
2021/04/01 08:53:24;;;;;;;28.17;22.70;;;16.70;99.50;;;;;;4970191;28;20425;-85
2021/04/01 08:55:59;;;;;;;28.40;20.80;;;16.50;99.60;;;;;;5014044;28;20443;-84
2021/04/01 08:59:20;;;;;;;30.10;24.07;;;16.50;99.40;;;;;;5016744;28;20402;-83
2021/04/01 09:01:57;;;;;;;28.20;22.40;;;16.50;99.30;;;;;;5002208;28;20434;-83
2021/04/01 09:05:16;;;;;;;28.30;21.90;;;16.40;98.90;;;;;;5001886;28;20426;-83
2021/04/01 09:14:17;;;;;;;28.27;21.47;;;16.30;99.90;;;;;;4988689;28;20446;-84
2021/04/01 09:19:50;;;;;;;32.67;23.10;;;16.40;99.90;;;;;;5001642;28;20442;-82
2021/04/01 09:22:33;;;;;;;29.67;21.70;;;16.50;99.90;;;;;;4993925;28;20481;-85
2021/04/01 09:25:16;;;;;;;28.27;21.60;;;16.60;99.90;;;;;;4992336;28;20443;-83
2021/04/01 09:28:08;;;;;;;37.70;22.20;;;16.80;99.90;;;;;;5007773;28;20415;-86
2021/04/01 09:30:39;;;;;;;33.77;22.53;;;17.10;99.90;;;;;;4990606;28;20380;-85
2021/04/01 09:33:25;;;;;;;33.47;26.07;;;17.40;99.90;;;;;;4991857;28;20438;-84
2021/04/01 09:36:29;;;;;;;32.30;25.30;;;17.60;99.90;;;;;;5006363;28;20435;-85
2021/04/01 09:39:27;;;;;;;29.50;23.40;;;17.80;99.90;;;;;;5009914;28;20842;-84
2021/04/01 09:42:43;;;;;;;;;;;;;;;;;;;;;
2021/04/01 09:45:34;;;;;;;27.13;21.03;;;17.90;99.90;;;;;;5004934;28;20439;-84
2021/04/01 09:48:05;;;;;;;34.40;26.27;;;18.30;99.90;;;;;;5004146;28;20420;-86
2021/04/01 09:50:39;;;;;;;30.73;23.40;;;18.40;99.50;;;;;;5007260;28;20466;-84
2021/04/01 09:53:24;;;;;;;35.90;24.43;;;18.40;98.00;;;;;;4991402;28;20412;-84
2021/04/01 09:55:53;;;;;;;34.30;25.43;;;18.30;98.10;;;;;;5009540;28;20446;-84
2021/04/01 09:58:39;;;;;;;39.33;26.20;;;18.20;98.10;;;;;;5008642;28;20497;-85
2021/04/01 10:17:12;;;;;;;31.80;24.47;;;17.80;98.90;;;;;;1253386;23;20490;-84
2021/04/01 10:19:41;;;;;;;36.73;26.80;;;17.60;99.60;;;;;;4994025;28;20449;-84
2021/04/01 10:22:31;;;;;;;30.97;25.90;;;17.80;99.90;;;;;;5015396;28;20463;-84
2021/04/01 10:27:49;;;;;;;34.47;25.13;;;17.70;99.90;;;;;;5005587;28;20403;-83
2021/04/01 10:31:02;;;;;;;30.63;23.20;;;17.50;99.90;;;;;;5005917;28;20411;-84
2021/04/01 10:33:56;;;;;;;29.00;24.10;;;17.60;99.90;;;;;;5011043;28;20482;-84
2021/04/01 10:36:29;;;;;;;33.87;28.43;;;17.50;99.90;;;;;;4989701;28;20510;-84
2021/04/01 10:39:19;;;;;;;35.87;24.80;;;17.40;99.90;;;;;;4988980;28;20407;-83
2021/04/01 10:41:57;;;;;;;40.10;28.50;;;17.50;99.90;;;;;;5006989;28;20451;-84
2021/04/01 10:44:26;;;;;;;39.43;27.67;;;17.40;99.10;;;;;;4990743;28;20436;-82
2021/04/01 10:46:58;;;;;;;34.90;26.80;;;17.20;99.60;;;;;;5005626;28;20900;-83
2021/04/01 10:49:29;;;;;;;32.83;26.00;;;17.10;99.60;;;;;;5009481;28;20391;-84
2021/04/01 10:51:59;;;;;;;38.20;29.00;;;16.90;99.80;;;;;;5026956;28;20405;-83
2021/04/01 10:54:41;;;;;;;33.20;27.77;;;16.80;99.60;;;;;;5017702;28;20398;-83
2021/04/01 10:57:10;;;;;;;32.50;24.73;;;16.80;99.90;;;;;;5040164;28;20425;-84
2021/04/01 11:00:04;;;;;;;;;;;;;;;;;;;;;
2021/04/01 11:02:41;;;;;;;37.97;26.83;;;16.90;99.90;;;;;;4984089;28;20543;-84
2021/04/01 11:05:14;;;;;;;33.13;26.30;;;16.80;99.90;;;;;;4990210;28;20448;-83
2021/04/01 11:07:48;;;;;;;37.77;26.80;;;16.90;99.90;;;;;;4986704;28;20481;-82
2021/04/01 11:10:33;;;;;;;30.60;26.20;;;17.00;99.90;;;;;;4971099;28;20502;-82
2021/04/01 11:13:04;;;;;;;29.10;25.73;;;16.80;99.10;;;;;;4987848;28;20400;-82
2021/04/01 11:15:42;;;;;;;36.70;25.87;;;16.70;99.90;;;;;;4986607;28;21048;-84
2021/04/01 11:18:17;;;;;;;35.03;24.40;;;16.90;99.90;;;;;;4970782;28;20435;-84
2021/04/01 11:20:51;;;;;;;33.80;26.23;;;17.00;99.80;;;;;;4985394;28;20813;-83
2021/04/01 11:23:20;;;;;;;40.30;28.57;;;17.10;99.90;;;;;;4985017;28;20456;-83
2021/04/01 11:25:57;;;;;;;40.80;28.40;;;17.40;99.60;;;;;;4970511;28;20432;-83
2021/04/01 11:28:44;;;;;;;39.13;26.50;;;17.90;99.70;;;;;;4987373;28;20412;-82
2021/04/01 11:31:23;;;;;;;37.43;28.90;;;18.00;97.30;;;;;;4986518;28;20870;-83
2021/04/01 11:33:52;;;;;;;37.67;27.90;;;18.30;97.10;;;;;;5013724;28;20490;-83
2021/04/01 11:36:23;;;;;;;37.77;26.67;;;18.40;95.80;;;;;;5026400;28;20781;-83
2021/04/01 11:39:01;;;;;;;38.27;24.80;;;18.60;95.70;;;;;;5025828;28;20411;-83
2021/04/01 11:41:29;;;;;;;37.50;26.90;;;18.60;95.80;;;;;;5009826;28;20417;-83
2021/04/01 11:43:57;;;;;;;36.57;27.83;;;18.30;97.00;;;;;;5013122;28;20531;-82
2021/04/01 11:46:32;;;;;;;35.50;26.47;;;18.30;97.20;;;;;;5012200;28;20454;-84
2021/04/01 11:49:00;;;;;;;39.00;27.67;;;18.40;96.70;;;;;;5012886;28;20874;-79
2021/04/01 11:51:29;;;;;;;35.63;27.70;;;18.70;96.30;;;;;;5019911;28;20411;-83
2021/04/01 11:53:56;;;;;;;44.23;28.77;;;18.70;96.30;;;;;;5019673;28;20425;-83
2021/04/01 11:56:38;;;;;;;36.70;28.33;;;18.60;96.20;;;;;;5019215;28;20441;-82
2021/04/01 11:59:13;;;;;;;38.83;27.43;;;18.70;95.80;;;;;;5020508;28;20441;-83
2021/04/01 12:02:03;;;;;;;44.57;33.87;;;18.60;95.30;;;;;;5021364;28;20381;-80
2021/04/01 12:04:33;;;;;;;37.03;24.77;;;18.70;94.70;;;;;;5037281;28;20391;-80
2021/04/01 12:07:00;;;;;;;45.47;27.30;;;18.80;94.20;;;;;;5038261;28;20450;-81
2021/04/01 12:09:29;;;;;;;40.83;26.83;;;18.70;93.60;;;;;;5020894;28;20394;-81
2021/04/01 12:11:56;;;;;;;34.40;24.17;;;18.70;93.50;;;;;;5020170;28;20415;-83
2021/04/01 12:14:35;;;;;;;39.90;25.87;;;18.40;93.50;;;;;;5019837;28;20422;-84
2021/04/01 12:17:02;;;;;;;31.30;26.00;;;18.40;94.20;;;;;;5018829;28;20427;-81
2021/04/01 12:19:33;;;;;;;34.53;25.27;;;18.50;93.80;;;;;;5004101;28;20430;-82
2021/04/01 12:22:07;;;;;;;34.70;24.63;;;18.50;93.50;;;;;;5035685;28;20410;-82
2021/04/01 12:24:35;;;;;;;31.60;24.00;;;18.60;93.30;;;;;;5017411;28;20427;-81
2021/04/01 12:27:01;;;;;;;34.27;26.63;;;18.60;93.20;;;;;;5013577;28;20435;-83
2021/04/01 12:29:29;;;;;;;36.70;26.67;;;18.50;93.10;;;;;;5011067;28;20410;-81
2021/04/01 12:31:57;;;;;;;33.73;24.47;;;18.30;93.30;;;;;;5012526;28;20399;-83
2021/04/01 12:34:33;;;;;;;36.83;23.90;;;17.90;93.00;;;;;;5012657;28;20446;-83
2021/04/01 12:37:03;;;;;;;39.77;27.70;;;17.60;93.90;;;;;;5033240;28;20410;-84
2021/04/01 12:39:35;;;;;;;42.17;27.53;;;17.80;93.80;;;;;;5038620;28;20423;-83
2021/04/01 12:42:02;;;;;;;37.43;26.67;;;18.00;93.10;;;;;;5037524;28;20522;-84
2021/04/01 12:44:41;;;;;;;39.50;26.10;;;18.20;92.40;;;;;;5036968;28;20398;-84
2021/04/01 12:47:37;;;;;;;33.90;25.53;;;18.10;92.80;;;;;;5031700;28;20418;-82
2021/04/01 12:50:07;;;;;;;35.97;25.80;;;18.20;92.50;;;;;;5009682;28;20461;-83
2021/04/01 12:53:06;;;;;;;33.27;26.03;;;18.10;92.70;;;;;;5008241;28;20496;-84
2021/04/01 12:58:20;;;;;;;32.70;26.03;;;18.30;93.30;;;;;;5016493;28;20494;-83
2021/04/01 13:00:51;;;;;;;34.87;27.30;;;18.30;94.80;;;;;;5012308;28;20421;-84
2021/04/01 13:03:17;;;;;;;35.13;27.37;;;17.80;96.80;;;;;;5008842;28;20450;-83
2021/04/01 13:05:51;;;;;;;39.87;30.43;;;17.80;97.80;;;;;;5026428;28;20878;-83
2021/04/01 13:10:43;;;;;;;37.03;28.13;;;17.70;99.20;;;;;;5009043;28;20442;-80
2021/04/01 13:13:10;;;;;;;40.23;28.67;;;17.70;99.60;;;;;;5009261;28;20423;-82
2021/04/01 13:15:41;;;;;;;36.50;30.17;;;17.70;99.50;;;;;;5010239;28;20530;-82
2021/04/01 13:18:08;;;;;;;36.00;29.67;;;17.70;99.30;;;;;;5025556;28;20441;-84
2021/04/01 13:20:34;;;;;;;39.17;30.70;;;17.90;99.20;;;;;;5022936;28;20891;-84
2021/04/01 13:25:31;;;;;;;47.80;33.80;;;17.80;98.00;;;;;;5023036;28;20438;-82
2021/04/01 13:28:08;;;;;;;46.83;33.10;;;17.30;98.40;;;;;;5005951;28;20415;-84
2021/04/01 13:30:36;;;;;;;38.27;29.33;;;17.20;98.80;;;;;;5006515;28;20391;-84
2021/04/01 13:33:09;;;;;;;40.30;30.43;;;17.40;98.40;;;;;;5007779;28;20421;-84
2021/04/01 13:35:54;;;;;;;42.57;31.23;;;;;;;;;;5024147;28;20433;-81
2021/04/01 13:38:26;;;;;;;55.73;35.00;;;;;;;;;;5024195;28;20775;-83
2021/04/01 13:40:54;;;;;;;46.90;35.83;;;;;;;;;;5007961;28;20869;-83
2021/04/01 13:43:26;;;;;;;51.70;34.43;;;;;;;;;;5007023;28;20459;-82
2021/04/01 13:45:52;;;;;;;50.57;35.47;;;;;;;;;;5093237;23;20485;-85
2021/04/01 13:48:23;;;;;;;41.00;32.37;;;;;;;;;;5009182;28;20398;-87
2021/04/01 13:50:57;;;;;;;37.97;31.60;;;;;;;;;;5007956;28;20414;-84
2021/04/01 13:53:47;;;;;;;39.57;30.10;;;;;;;;;;5007337;28;20410;-84
2021/04/01 13:56:19;;;;;;;38.33;33.20;;;;;;;;;;5024526;28;20421;-86
2021/04/01 14:09:58;;;;;;;41.47;33.00;;;;;;;;;;5023802;28;20559;-84
2021/04/01 14:12:25;;;;;;;42.07;33.90;;;;;;;;;;5004447;28;20426;-85
2021/04/01 14:14:55;;;;;;;47.63;33.30;;;;;;;;;;5007982;28;20406;-83
2021/04/01 14:17:23;;;;;;;52.17;38.00;;;;;;;;;;5020052;28;20433;-84
2021/04/01 14:19:56;;;;;;;47.73;33.50;;;;;;;;;;5005341;28;20551;-83
2021/04/01 14:22:27;;;;;;;45.80;34.80;;;;;;;;;;5021854;28;20429;-83
2021/04/01 14:24:59;;;;;;;43.83;34.30;;;;;;;;;;5019559;28;20428;-84
2021/04/01 14:27:33;;;;;;;47.67;35.00;;;;;;;;;;5004498;28;20417;-84
2021/04/01 14:29:59;;;;;;;44.60;35.20;;;;;;;;;;5007564;28;20570;-83
2021/04/01 14:32:26;;;;;;;46.83;38.37;;;;;;;;;;5005752;28;20452;-83
2021/04/01 14:35:03;;;;;;;49.30;38.30;;;;;;;;;;5024153;28;20982;-84
2021/04/01 14:37:31;;;;;;;44.00;36.07;;;;;;;;;;5008222;28;20464;-83
2021/04/01 14:39:59;;;;;;;49.60;40.03;;;;;;;;;;5008351;28;20413;-83
2021/04/01 14:42:32;;;;;;;49.87;37.80;;;;;;;;;;5026128;28;20453;-84
2021/04/01 14:44:59;;;;;;;51.37;37.13;;;;;;;;;;5025733;28;20527;-84
2021/04/01 14:47:27;;;;;;;48.20;38.70;;;;;;;;;;5008149;28;20939;-83
2021/04/01 14:49:55;;;;;;;51.77;40.30;;;;;;;;;;5006620;28;20952;-83
2021/04/01 14:52:25;;;;;;;54.53;42.37;;;;;;;;;;5026557;28;20420;-82
2021/04/01 14:54:57;;;;;;;46.70;39.03;;;;;;;;;;5009340;28;20433;-84
2021/04/01 14:57:27;;;;;;;53.73;40.20;;;;;;;;;;5010206;28;20423;-83
2021/04/01 14:59:54;;;;;;;48.63;38.63;;;;;;;;;;5008862;28;20454;-82
2021/04/01 15:02:20;;;;;;;55.07;40.53;;;;;;;;;;5025680;28;20464;-81
2021/04/01 15:04:47;;;;;;;46.73;38.27;;;;;;;;;;5008975;28;20423;-83
2021/04/01 15:07:14;;;;;;;56.37;40.53;;;;;;;;;;5008255;28;20432;-82
2021/04/01 15:09:43;;;;;;;52.57;42.43;;;;;;;;;;5008800;28;20758;-83
2021/04/01 15:12:11;;;;;;;50.67;42.20;;;;;;;;;;4991450;28;20421;-83
2021/04/01 15:14:38;;;;;;;52.83;42.70;;;;;;;;;;5007973;28;20467;-84
2021/04/01 15:17:14;;;;;;;55.60;41.60;;;;;;;;;;4991285;28;20429;-84